sensor_id;sensor_type;location;lat;lon;timestamp;temperature;humidity
29201;DHT22;16244;51.956;12.980;2023-12-14T10:47:44;3.60;99.90
29201;DHT22;16244;51.956;12.980;2023-12-14T10:50:12;3.60;99.90
29201;DHT22;16244;51.956;12.980;2023-12-14T10:52:41;3.70;99.90
29201;DHT22;16244;51.956;12.980;2023-12-14T10:55:13;3.70;99.90
29201;DHT22;16244;51.956;12.980;2023-12-14T10:57:42;3.70;99.90
29201;DHT22;16244;51.956;12.980;2023-12-14T11:00:10;3.60;99.90
29201;DHT22;16244;51.956;12.980;2023-12-14T11:02:40;3.70;99.90
29201;DHT22;16244;51.956;12.980;2023-12-14T11:05:11;3.80;99.90
29201;DHT22;16244;51.956;12.980;2023-12-14T11:07:46;3.80;99.90
29201;DHT22;16244;51.956;12.980;2023-12-14T11:10:14;3.70;99.90
29201;DHT22;16244;51.956;12.980;2023-12-14T11:12:52;3.70;99.90
29201;DHT22;16244;51.956;12.980;2023-12-14T11:15:21;3.70;99.90
29201;DHT22;16244;51.956;12.980;2023-12-14T11:18:20;3.80;99.90
29201;DHT22;16244;51.956;12.980;2023-12-14T11:20:50;3.70;99.90
29201;DHT22;16244;51.956;12.980;2023-12-14T11:23:27;3.60;99.90
29201;DHT22;16244;51.956;12.980;2023-12-14T11:25:58;3.60;99.90
29201;DHT22;16244;51.956;12.980;2023-12-14T11:28:25;3.60;99.90
29201;DHT22;16244;51.956;12.980;2023-12-14T11:30:53;3.60;99.90
29201;DHT22;16244;51.956;12.980;2023-12-14T11:33:21;3.60;99.90
29201;DHT22;16244;51.956;12.980;2023-12-14T11:35:52;3.70;99.90
29201;DHT22;16244;51.956;12.980;2023-12-14T11:38:20;3.60;99.90
29201;DHT22;16244;51.956;12.980;2023-12-14T11:40:48;3.70;99.90
29201;DHT22;16244;51.956;12.980;2023-12-14T11:43:16;3.60;99.90
29201;DHT22;16244;51.956;12.980;2023-12-14T11:45:46;3.70;99.90
29201;DHT22;16244;51.956;12.980;2023-12-14T11:48:14;3.70;99.90
29201;DHT22;16244;51.956;12.980;2023-12-14T11:50:42;3.70;99.90
29201;DHT22;16244;51.956;12.980;2023-12-14T11:53:12;3.60;99.90
29201;DHT22;16244;51.956;12.980;2023-12-14T11:55:41;3.60;99.90
29201;DHT22;16244;51.956;12.980;2023-12-14T11:58:12;3.60;99.90
29201;DHT22;16244;51.956;12.980;2023-12-14T12:00:41;3.50;99.90
29201;DHT22;16244;51.956;12.980;2023-12-14T12:03:15;3.50;99.90
29201;DHT22;16244;51.956;12.980;2023-12-14T12:05:43;3.50;99.90
29201;DHT22;16244;51.956;12.980;2023-12-14T12:08:13;3.50;99.90
29201;DHT22;16244;51.956;12.980;2023-12-14T12:10:42;3.50;99.90
29201;DHT22;16244;51.956;12.980;2023-12-14T12:13:12;3.50;99.90
29201;DHT22;16244;51.956;12.980;2023-12-14T12:15:40;3.50;99.90
29201;DHT22;16244;51.956;12.980;2023-12-14T12:18:08;3.40;99.90
29201;DHT22;16244;51.956;12.980;2023-12-14T12:20:36;3.50;99.90
29201;DHT22;16244;51.956;12.980;2023-12-14T12:23:03;3.50;99.90
29201;DHT22;16244;51.956;12.980;2023-12-14T12:25:33;3.50;99.90
29201;DHT22;16244;51.956;12.980;2023-12-14T12:28:02;3.50;99.90
29201;DHT22;16244;51.956;12.980;2023-12-14T12:30:30;3.50;99.90
29201;DHT22;16244;51.956;12.980;2023-12-14T12:32:58;3.40;99.90
29201;DHT22;16244;51.956;12.980;2023-12-14T12:35:25;3.40;99.90
29201;DHT22;16244;51.956;12.980;2023-12-14T12:37:52;3.40;99.90
29201;DHT22;16244;51.956;12.980;2023-12-14T12:40:20;3.40;99.90
29201;DHT22;16244;51.956;12.980;2023-12-14T12:42:51;3.40;99.90
29201;DHT22;16244;51.956;12.980;2023-12-14T12:45:20;3.40;99.90
29201;DHT22;16244;51.956;12.980;2023-12-14T12:47:48;3.40;99.90
29201;DHT22;16244;51.956;12.980;2023-12-14T12:50:16;3.40;99.90
29201;DHT22;16244;51.956;12.980;2023-12-14T12:52:43;3.40;99.90
29201;DHT22;16244;51.956;12.980;2023-12-14T12:55:12;3.50;99.90
29201;DHT22;16244;51.956;12.980;2023-12-14T12:57:40;3.40;99.90
29201;DHT22;16244;51.956;12.980;2023-12-14T13:00:10;3.50;99.90
29201;DHT22;16244;51.956;12.980;2023-12-14T13:02:38;3.40;99.90
29201;DHT22;16244;51.956;12.980;2023-12-14T13:05:06;3.50;99.90
29201;DHT22;16244;51.956;12.980;2023-12-14T13:07:35;3.50;99.90
29201;DHT22;16244;51.956;12.980;2023-12-14T13:10:03;3.50;99.90
29201;DHT22;16244;51.956;12.980;2023-12-14T13:12:33;3.50;99.90
29201;DHT22;16244;51.956;12.980;2023-12-14T13:15:01;3.50;99.90
29201;DHT22;16244;51.956;12.980;2023-12-14T13:17:31;3.60;99.90
29201;DHT22;16244;51.956;12.980;2023-12-14T13:19:59;3.70;99.90
29201;DHT22;16244;51.956;12.980;2023-12-14T13:22:26;3.70;99.90
29201;DHT22;16244;51.956;12.980;2023-12-14T13:24:53;3.60;99.90
29201;DHT22;16244;51.956;12.980;2023-12-14T13:27:21;3.60;99.90
29201;DHT22;16244;51.956;12.980;2023-12-14T13:29:50;3.60;99.90
29201;DHT22;16244;51.956;12.980;2023-12-14T13:32:17;3.60;99.90
29201;DHT22;16244;51.956;12.980;2023-12-14T13:34:46;3.60;99.90
29201;DHT22;16244;51.956;12.980;2023-12-14T13:37:13;3.60;99.90
29201;DHT22;16244;51.956;12.980;2023-12-14T13:39:41;3.60;99.90
29201;DHT22;16244;51.956;12.980;2023-12-14T13:42:09;3.60;99.90
29201;DHT22;16244;51.956;12.980;2023-12-14T13:44:37;3.60;99.90
29201;DHT22;16244;51.956;12.980;2023-12-14T13:47:05;3.60;99.90
29201;DHT22;16244;51.956;12.980;2023-12-14T13:49:33;3.50;99.90
29201;DHT22;16244;51.956;12.980;2023-12-14T13:52:02;3.50;99.90
29201;DHT22;16244;51.956;12.980;2023-12-14T13:54:30;3.50;99.90
29201;DHT22;16244;51.956;12.980;2023-12-14T13:56:57;3.50;99.90
29201;DHT22;16244;51.956;12.980;2023-12-14T13:59:24;3.50;99.90
29201;DHT22;16244;51.956;12.980;2023-12-14T14:01:52;3.50;99.90
29201;DHT22;16244;51.956;12.980;2023-12-14T14:04:19;3.50;99.90
29201;DHT22;16244;51.956;12.980;2023-12-14T14:06:47;3.50;99.90
29201;DHT22;16244;51.956;12.980;2023-12-14T14:09:15;3.40;99.90
29201;DHT22;16244;51.956;12.980;2023-12-14T14:11:43;3.60;99.90
29201;DHT22;16244;51.956;12.980;2023-12-14T14:14:13;3.60;99.90
29201;DHT22;16244;51.956;12.980;2023-12-14T14:16:41;3.60;99.90
29201;DHT22;16244;51.956;12.980;2023-12-14T14:19:08;3.60;99.90
29201;DHT22;16244;51.956;12.980;2023-12-14T14:21:35;3.60;99.90
29201;DHT22;16244;51.956;12.980;2023-12-14T14:24:03;3.50;99.90
29201;DHT22;16244;51.956;12.980;2023-12-14T14:26:32;3.50;99.90
29201;DHT22;16244;51.956;12.980;2023-12-14T14:29:00;3.40;99.90
29201;DHT22;16244;51.956;12.980;2023-12-14T14:31:29;3.40;99.90
29201;DHT22;16244;51.956;12.980;2023-12-14T14:33:58;3.50;99.90
29201;DHT22;16244;51.956;12.980;2023-12-14T14:36:26;3.50;99.90
29201;DHT22;16244;51.956;12.980;2023-12-14T14:38:54;3.40;99.90
29201;DHT22;16244;51.956;12.980;2023-12-14T14:41:23;3.50;99.90
29201;DHT22;16244;51.956;12.980;2023-12-14T14:43:52;3.60;99.90
29201;DHT22;16244;51.956;12.980;2023-12-14T14:46:19;3.60;99.90
29201;DHT22;16244;51.956;12.980;2023-12-14T14:48:47;3.60;99.90
29201;DHT22;16244;51.956;12.980;2023-12-14T14:51:15;3.60;99.90
29201;DHT22;16244;51.956;12.980;2023-12-14T14:53:42;3.50;99.90
29201;DHT22;16244;51.956;12.980;2023-12-14T14:56:10;3.50;99.90
29201;DHT22;16244;51.956;12.980;2023-12-14T14:58:37;3.50;99.90
29201;DHT22;16244;51.956;12.980;2023-12-14T15:01:06;3.50;99.90
29201;DHT22;16244;51.956;12.980;2023-12-14T15:03:34;3.50;99.90
29201;DHT22;16244;51.956;12.980;2023-12-14T15:06:01;3.60;99.90
29201;DHT22;16244;51.956;12.980;2023-12-14T15:08:28;3.50;99.90
29201;DHT22;16244;51.956;12.980;2023-12-14T15:10:56;3.50;99.90
29201;DHT22;16244;51.956;12.980;2023-12-14T15:13:24;3.50;99.90
29201;DHT22;16244;51.956;12.980;2023-12-14T15:15:51;3.50;99.90
29201;DHT22;16244;51.956;12.980;2023-12-14T15:18:20;3.50;99.90
29201;DHT22;16244;51.956;12.980;2023-12-14T15:20:47;3.50;99.90
29201;DHT22;16244;51.956;12.980;2023-12-14T15:23:17;3.50;99.90
29201;DHT22;16244;51.956;12.980;2023-12-14T15:25:45;3.50;99.90
29201;DHT22;16244;51.956;12.980;2023-12-14T15:28:13;3.40;99.90
29201;DHT22;16244;51.956;12.980;2023-12-14T15:30:40;3.40;99.90
29201;DHT22;16244;51.956;12.980;2023-12-14T15:33:08;3.50;99.90
29201;DHT22;16244;51.956;12.980;2023-12-14T15:35:36;3.50;99.90
29201;DHT22;16244;51.956;12.980;2023-12-14T15:38:04;3.40;99.90
29201;DHT22;16244;51.956;12.980;2023-12-14T15:40:31;3.40;99.90
29201;DHT22;16244;51.956;12.980;2023-12-14T15:42:59;3.40;99.90
29201;DHT22;16244;51.956;12.980;2023-12-14T15:45:27;3.40;99.90
29201;DHT22;16244;51.956;12.980;2023-12-14T15:47:59;3.40;99.90
29201;DHT22;16244;51.956;12.980;2023-12-14T15:50:26;3.40;99.90
29201;DHT22;16244;51.956;12.980;2023-12-14T15:52:55;3.40;99.90
29201;DHT22;16244;51.956;12.980;2023-12-14T15:55:24;3.40;99.90
29201;DHT22;16244;51.956;12.980;2023-12-14T15:57:51;3.40;99.90
29201;DHT22;16244;51.956;12.980;2023-12-14T16:00:19;3.40;99.90
29201;DHT22;16244;51.956;12.980;2023-12-14T16:02:47;3.40;99.90
29201;DHT22;16244;51.956;12.980;2023-12-14T16:05:14;3.50;99.90
29201;DHT22;16244;51.956;12.980;2023-12-14T16:07:42;3.50;99.90
29201;DHT22;16244;51.956;12.980;2023-12-14T16:10:11;3.40;99.90
29201;DHT22;16244;51.956;12.980;2023-12-14T16:12:38;3.30;99.90
29201;DHT22;16244;51.956;12.980;2023-12-14T16:15:07;3.30;99.90
29201;DHT22;16244;51.956;12.980;2023-12-14T16:17:34;3.40;99.90
29201;DHT22;16244;51.956;12.980;2023-12-14T16:20:02;3.30;99.90
29201;DHT22;16244;51.956;12.980;2023-12-14T16:22:31;3.40;99.90
29201;DHT22;16244;51.956;12.980;2023-12-14T16:24:58;3.40;99.90
29201;DHT22;16244;51.956;12.980;2023-12-14T16:27:27;3.40;99.90
29201;DHT22;16244;51.956;12.980;2023-12-14T16:29:55;3.30;99.90
29201;DHT22;16244;51.956;12.980;2023-12-14T16:32:22;3.30;99.90
29201;DHT22;16244;51.956;12.980;2023-12-14T16:34:50;3.30;99.90
29201;DHT22;16244;51.956;12.980;2023-12-14T16:37:19;3.30;99.90
29201;DHT22;16244;51.956;12.980;2023-12-14T16:39:46;3.20;99.90
29201;DHT22;16244;51.956;12.980;2023-12-14T16:42:14;3.30;99.90
29201;DHT22;16244;51.956;12.980;2023-12-14T16:44:43;3.30;99.90
29201;DHT22;16244;51.956;12.980;2023-12-14T16:47:10;3.30;99.90
29201;DHT22;16244;51.956;12.980;2023-12-14T16:49:39;3.20;99.90
29201;DHT22;16244;51.956;12.980;2023-12-14T16:52:07;3.20;99.90
29201;DHT22;16244;51.956;12.980;2023-12-14T16:54:34;3.30;99.90
29201;DHT22;16244;51.956;12.980;2023-12-14T16:57:02;3.30;99.90
29201;DHT22;16244;51.956;12.980;2023-12-14T16:59:30;3.30;99.90
29201;DHT22;16244;51.956;12.980;2023-12-14T17:01:58;3.30;99.90
29201;DHT22;16244;51.956;12.980;2023-12-14T17:04:26;3.40;99.90
29201;DHT22;16244;51.956;12.980;2023-12-14T17:06:53;3.30;99.90
29201;DHT22;16244;51.956;12.980;2023-12-14T17:09:21;3.30;99.90
29201;DHT22;16244;51.956;12.980;2023-12-14T17:11:49;3.40;99.90
29201;DHT22;16244;51.956;12.980;2023-12-14T17:14:16;3.40;99.90
29201;DHT22;16244;51.956;12.980;2023-12-14T17:16:46;3.30;99.90
29201;DHT22;16244;51.956;12.980;2023-12-14T17:19:15;3.40;99.90
29201;DHT22;16244;51.956;12.980;2023-12-14T17:21:43;3.40;99.90
29201;DHT22;16244;51.956;12.980;2023-12-14T17:24:10;3.50;99.90
29201;DHT22;16244;51.956;12.980;2023-12-14T17:26:38;3.50;99.90
29201;DHT22;16244;51.956;12.980;2023-12-14T17:29:05;3.50;99.90
29201;DHT22;16244;51.956;12.980;2023-12-14T17:31:35;3.50;99.90
29201;DHT22;16244;51.956;12.980;2023-12-14T17:34:03;3.50;99.90
29201;DHT22;16244;51.956;12.980;2023-12-14T17:36:32;3.50;99.90
29201;DHT22;16244;51.956;12.980;2023-12-14T17:38:59;3.50;99.90
29201;DHT22;16244;51.956;12.980;2023-12-14T17:41:27;3.50;99.90
29201;DHT22;16244;51.956;12.980;2023-12-14T17:43:54;3.50;99.90
29201;DHT22;16244;51.956;12.980;2023-12-14T17:46:22;3.50;99.90
29201;DHT22;16244;51.956;12.980;2023-12-14T17:48:49;3.40;99.90
29201;DHT22;16244;51.956;12.980;2023-12-14T17:51:17;3.50;99.90
29201;DHT22;16244;51.956;12.980;2023-12-14T17:53:46;3.50;99.90
29201;DHT22;16244;51.956;12.980;2023-12-14T17:56:13;3.60;99.90
29201;DHT22;16244;51.956;12.980;2023-12-14T17:58:41;3.60;99.90
29201;DHT22;16244;51.956;12.980;2023-12-14T18:01:11;3.50;99.90
29201;DHT22;16244;51.956;12.980;2023-12-14T18:03:39;3.40;99.90
29201;DHT22;16244;51.956;12.980;2023-12-14T18:06:07;3.40;99.90
29201;DHT22;16244;51.956;12.980;2023-12-14T18:08:34;3.40;99.90
29201;DHT22;16244;51.956;12.980;2023-12-14T18:11:04;3.40;99.90
29201;DHT22;16244;51.956;12.980;2023-12-14T18:13:31;3.30;99.90
29201;DHT22;16244;51.956;12.980;2023-12-14T18:15:59;3.40;99.90
29201;DHT22;16244;51.956;12.980;2023-12-14T18:18:28;3.40;99.90
29201;DHT22;16244;51.956;12.980;2023-12-14T18:20:55;3.40;99.90
29201;DHT22;16244;51.956;12.980;2023-12-14T18:23:23;3.40;99.90
29201;DHT22;16244;51.956;12.980;2023-12-14T18:25:50;3.50;99.90
29201;DHT22;16244;51.956;12.980;2023-12-14T18:28:19;3.50;99.90
29201;DHT22;16244;51.956;12.980;2023-12-14T18:30:46;3.50;99.90
29201;DHT22;16244;51.956;12.980;2023-12-14T18:33:14;3.50;99.90
29201;DHT22;16244;51.956;12.980;2023-12-14T18:35:43;3.50;99.90
29201;DHT22;16244;51.956;12.980;2023-12-14T18:38:10;3.60;99.90
29201;DHT22;16244;51.956;12.980;2023-12-14T18:40:38;3.50;99.90
29201;DHT22;16244;51.956;12.980;2023-12-14T18:43:05;3.50;99.90
29201;DHT22;16244;51.956;12.980;2023-12-14T18:45:35;3.50;99.90
29201;DHT22;16244;51.956;12.980;2023-12-14T18:48:05;3.50;99.90
29201;DHT22;16244;51.956;12.980;2023-12-14T18:50:33;3.40;99.90
29201;DHT22;16244;51.956;12.980;2023-12-14T18:53:01;3.40;99.90
29201;DHT22;16244;51.956;12.980;2023-12-14T18:55:30;3.40;99.90
29201;DHT22;16244;51.956;12.980;2023-12-14T18:57:58;3.40;99.90
29201;DHT22;16244;51.956;12.980;2023-12-14T19:00:25;3.50;99.90
29201;DHT22;16244;51.956;12.980;2023-12-14T19:02:54;3.50;99.90
29201;DHT22;16244;51.956;12.980;2023-12-14T19:05:22;3.60;99.90
29201;DHT22;16244;51.956;12.980;2023-12-14T19:07:52;3.60;99.90
29201;DHT22;16244;51.956;12.980;2023-12-14T19:10:20;3.60;99.90
29201;DHT22;16244;51.956;12.980;2023-12-14T19:12:48;3.70;99.90
29201;DHT22;16244;51.956;12.980;2023-12-14T19:15:15;3.60;99.90
29201;DHT22;16244;51.956;12.980;2023-12-14T19:17:43;3.60;99.90
29201;DHT22;16244;51.956;12.980;2023-12-14T19:20:12;3.60;99.90
29201;DHT22;16244;51.956;12.980;2023-12-14T19:22:40;3.60;99.90
29201;DHT22;16244;51.956;12.980;2023-12-14T19:25:09;3.60;99.90
29201;DHT22;16244;51.956;12.980;2023-12-14T19:27:38;3.60;99.90
29201;DHT22;16244;51.956;12.980;2023-12-14T19:30:08;3.50;99.90
29201;DHT22;16244;51.956;12.980;2023-12-14T19:32:36;3.60;99.90
29201;DHT22;16244;51.956;12.980;2023-12-14T19:35:04;3.60;99.90
29201;DHT22;16244;51.956;12.980;2023-12-14T19:37:33;3.60;99.90
29201;DHT22;16244;51.956;12.980;2023-12-14T19:40:01;3.60;99.90
29201;DHT22;16244;51.956;12.980;2023-12-14T19:42:30;3.60;99.90
29201;DHT22;16244;51.956;12.980;2023-12-14T19:44:59;3.60;99.90
29201;DHT22;16244;51.956;12.980;2023-12-14T19:47:27;3.60;99.90
29201;DHT22;16244;51.956;12.980;2023-12-14T19:49:54;3.70;99.90
29201;DHT22;16244;51.956;12.980;2023-12-14T19:52:25;3.70;99.90
29201;DHT22;16244;51.956;12.980;2023-12-14T19:54:54;3.70;99.90
29201;DHT22;16244;51.956;12.980;2023-12-14T19:57:22;3.60;99.90
29201;DHT22;16244;51.956;12.980;2023-12-14T19:59:50;3.60;99.90
29201;DHT22;16244;51.956;12.980;2023-12-14T20:02:17;3.60;99.90
29201;DHT22;16244;51.956;12.980;2023-12-14T20:04:45;3.60;99.90
29201;DHT22;16244;51.956;12.980;2023-12-14T20:07:12;3.60;99.90
29201;DHT22;16244;51.956;12.980;2023-12-14T20:09:40;3.60;99.90
29201;DHT22;16244;51.956;12.980;2023-12-14T20:12:09;3.70;99.90
29201;DHT22;16244;51.956;12.980;2023-12-14T20:14:36;3.70;99.90
29201;DHT22;16244;51.956;12.980;2023-12-14T20:17:04;3.70;99.90
29201;DHT22;16244;51.956;12.980;2023-12-14T20:19:32;3.70;99.90
29201;DHT22;16244;51.956;12.980;2023-12-14T20:21:59;3.70;99.90
29201;DHT22;16244;51.956;12.980;2023-12-14T20:24:27;3.70;99.90
29201;DHT22;16244;51.956;12.980;2023-12-14T20:26:55;3.70;99.90
29201;DHT22;16244;51.956;12.980;2023-12-14T20:29:24;3.70;99.90
29201;DHT22;16244;51.956;12.980;2023-12-14T20:31:52;3.70;99.90
29201;DHT22;16244;51.956;12.980;2023-12-14T20:34:19;3.70;99.90
29201;DHT22;16244;51.956;12.980;2023-12-14T20:36:47;3.80;99.90
29201;DHT22;16244;51.956;12.980;2023-12-14T20:39:15;3.80;99.90
29201;DHT22;16244;51.956;12.980;2023-12-14T20:41:43;3.80;99.90
29201;DHT22;16244;51.956;12.980;2023-12-14T20:44:10;3.80;99.90
29201;DHT22;16244;51.956;12.980;2023-12-14T20:46:39;3.70;99.90
29201;DHT22;16244;51.956;12.980;2023-12-14T20:49:07;3.60;99.90
29201;DHT22;16244;51.956;12.980;2023-12-14T20:51:34;3.60;99.90
29201;DHT22;16244;51.956;12.980;2023-12-14T20:54:02;3.60;99.90
29201;DHT22;16244;51.956;12.980;2023-12-14T20:56:29;3.70;99.90
29201;DHT22;16244;51.956;12.980;2023-12-14T20:58:56;3.70;99.90
29201;DHT22;16244;51.956;12.980;2023-12-14T21:01:28;3.70;99.90
29201;DHT22;16244;51.956;12.980;2023-12-14T21:03:57;3.70;99.90
29201;DHT22;16244;51.956;12.980;2023-12-14T21:06:25;3.60;99.90
29201;DHT22;16244;51.956;12.980;2023-12-14T21:08:52;3.50;99.90
29201;DHT22;16244;51.956;12.980;2023-12-14T21:11:19;3.60;99.90
29201;DHT22;16244;51.956;12.980;2023-12-14T21:13:51;3.60;99.90
29201;DHT22;16244;51.956;12.980;2023-12-14T21:16:18;3.60;99.90
29201;DHT22;16244;51.956;12.980;2023-12-14T21:18:46;3.60;99.90
29201;DHT22;16244;51.956;12.980;2023-12-14T21:21:14;3.50;99.90
29201;DHT22;16244;51.956;12.980;2023-12-14T21:23:42;3.60;99.90
29201;DHT22;16244;51.956;12.980;2023-12-14T21:26:09;3.60;99.90
29201;DHT22;16244;51.956;12.980;2023-12-14T21:28:38;3.50;99.90
29201;DHT22;16244;51.956;12.980;2023-12-14T21:31:05;3.60;99.90
29201;DHT22;16244;51.956;12.980;2023-12-14T21:33:33;3.60;99.90
29201;DHT22;16244;51.956;12.980;2023-12-14T21:36:00;3.60;99.90
29201;DHT22;16244;51.956;12.980;2023-12-14T21:38:29;3.50;99.90
29201;DHT22;16244;51.956;12.980;2023-12-14T21:40:58;3.50;99.90
29201;DHT22;16244;51.956;12.980;2023-12-14T21:43:26;3.50;99.90
29201;DHT22;16244;51.956;12.980;2023-12-14T21:45:53;3.50;99.90
29201;DHT22;16244;51.956;12.980;2023-12-14T21:48:21;3.50;99.90
29201;DHT22;16244;51.956;12.980;2023-12-14T21:50:48;3.50;99.90
29201;DHT22;16244;51.956;12.980;2023-12-14T21:53:16;3.50;99.90
29201;DHT22;16244;51.956;12.980;2023-12-14T21:55:45;3.50;99.90
29201;DHT22;16244;51.956;12.980;2023-12-14T21:58:12;3.50;99.90
29201;DHT22;16244;51.956;12.980;2023-12-14T22:00:40;3.40;99.90
29201;DHT22;16244;51.956;12.980;2023-12-14T22:03:10;3.30;99.90
29201;DHT22;16244;51.956;12.980;2023-12-14T22:05:38;3.40;99.90
29201;DHT22;16244;51.956;12.980;2023-12-14T22:08:05;3.40;99.90
29201;DHT22;16244;51.956;12.980;2023-12-14T22:10:33;3.40;99.90
29201;DHT22;16244;51.956;12.980;2023-12-14T22:13:01;3.40;99.90
29201;DHT22;16244;51.956;12.980;2023-12-14T22:15:29;3.60;99.90
29201;DHT22;16244;51.956;12.980;2023-12-14T22:17:56;3.50;99.90
29201;DHT22;16244;51.956;12.980;2023-12-14T22:20:24;3.50;99.90
29201;DHT22;16244;51.956;12.980;2023-12-14T22:22:51;3.60;99.90
29201;DHT22;16244;51.956;12.980;2023-12-14T22:25:19;3.70;99.90
29201;DHT22;16244;51.956;12.980;2023-12-14T22:27:47;3.70;99.90
29201;DHT22;16244;51.956;12.980;2023-12-14T22:30:15;3.70;99.90
29201;DHT22;16244;51.956;12.980;2023-12-14T22:32:44;3.80;99.90
29201;DHT22;16244;51.956;12.980;2023-12-14T22:35:11;3.80;99.90
29201;DHT22;16244;51.956;12.980;2023-12-14T22:37:39;3.70;99.90
29201;DHT22;16244;51.956;12.980;2023-12-14T22:40:07;3.70;99.90
29201;DHT22;16244;51.956;12.980;2023-12-14T22:42:35;3.80;99.90
29201;DHT22;16244;51.956;12.980;2023-12-14T22:45:03;3.80;99.90
29201;DHT22;16244;51.956;12.980;2023-12-14T22:47:32;3.80;99.90
29201;DHT22;16244;51.956;12.980;2023-12-14T22:49:59;3.80;99.90
29201;DHT22;16244;51.956;12.980;2023-12-14T22:52:27;3.90;99.90
29201;DHT22;16244;51.956;12.980;2023-12-14T22:54:54;3.90;99.90
29201;DHT22;16244;51.956;12.980;2023-12-14T22:57:22;3.90;99.90
29201;DHT22;16244;51.956;12.980;2023-12-14T22:59:51;3.90;99.90
29201;DHT22;16244;51.956;12.980;2023-12-14T23:02:18;3.90;99.90
29201;DHT22;16244;51.956;12.980;2023-12-14T23:04:49;3.90;99.90
29201;DHT22;16244;51.956;12.980;2023-12-14T23:07:16;3.70;99.90
29201;DHT22;16244;51.956;12.980;2023-12-14T23:09:44;3.80;99.90
29201;DHT22;16244;51.956;12.980;2023-12-14T23:12:11;3.70;99.90
29201;DHT22;16244;51.956;12.980;2023-12-14T23:14:39;3.60;99.90
29201;DHT22;16244;51.956;12.980;2023-12-14T23:17:07;3.70;99.90
29201;DHT22;16244;51.956;12.980;2023-12-14T23:19:34;3.80;99.90
29201;DHT22;16244;51.956;12.980;2023-12-14T23:22:03;3.60;99.90
29201;DHT22;16244;51.956;12.980;2023-12-14T23:24:30;3.60;99.90
29201;DHT22;16244;51.956;12.980;2023-12-14T23:26:58;3.60;99.90
29201;DHT22;16244;51.956;12.980;2023-12-14T23:29:25;3.70;99.90
29201;DHT22;16244;51.956;12.980;2023-12-14T23:31:53;3.80;99.90
29201;DHT22;16244;51.956;12.980;2023-12-14T23:34:20;3.70;99.90
29201;DHT22;16244;51.956;12.980;2023-12-14T23:36:48;3.60;99.90
29201;DHT22;16244;51.956;12.980;2023-12-14T23:39:16;3.60;99.90
29201;DHT22;16244;51.956;12.980;2023-12-14T23:41:44;3.50;99.90
29201;DHT22;16244;51.956;12.980;2023-12-14T23:44:11;3.60;99.90
29201;DHT22;16244;51.956;12.980;2023-12-14T23:46:39;3.50;99.90
29201;DHT22;16244;51.956;12.980;2023-12-14T23:49:06;3.50;99.90
29201;DHT22;16244;51.956;12.980;2023-12-14T23:51:34;3.50;99.90
29201;DHT22;16244;51.956;12.980;2023-12-14T23:54:01;3.60;99.90
29201;DHT22;16244;51.956;12.980;2023-12-14T23:56:30;3.40;99.90
29201;DHT22;16244;51.956;12.980;2023-12-14T23:58:58;3.40;99.90
